sensor_id;sensor_type;location;lat;lon;timestamp;temperature;humidity
65072;DHT22;51663;52.310;17.016;2023-01-28T00:01:12;15.90;32.00
65072;DHT22;51663;52.310;17.016;2023-01-28T00:04:14;14.90;33.20
65072;DHT22;51663;52.310;17.016;2023-01-28T00:07:17;15.80;32.30
65072;DHT22;51663;52.310;17.016;2023-01-28T00:10:20;16.80;31.20
65072;DHT22;51663;52.310;17.016;2023-01-28T00:13:22;16.50;31.10
65072;DHT22;51663;52.310;17.016;2023-01-28T00:16:25;15.80;31.20
65072;DHT22;51663;52.310;17.016;2023-01-28T00:19:31;15.00;32.80
65072;DHT22;51663;52.310;17.016;2023-01-28T00:22:33;16.90;30.90
65072;DHT22;51663;52.310;17.016;2023-01-28T00:25:35;16.90;29.80
65072;DHT22;51663;52.310;17.016;2023-01-28T00:28:38;16.60;29.80
65072;DHT22;51663;52.310;17.016;2023-01-28T00:31:40;15.80;31.20
65072;DHT22;51663;52.310;17.016;2023-01-28T00:34:42;14.60;34.40
65072;DHT22;51663;52.310;17.016;2023-01-28T00:37:45;16.60;31.50
65072;DHT22;51663;52.310;17.016;2023-01-28T00:40:48;17.80;29.00
65072;DHT22;51663;52.310;17.016;2023-01-28T00:43:51;16.70;29.90
65072;DHT22;51663;52.310;17.016;2023-01-28T00:46:53;16.30;30.20
65072;DHT22;51663;52.310;17.016;2023-01-28T00:49:55;17.10;29.40
65072;DHT22;51663;52.310;17.016;2023-01-28T00:52:58;18.70;28.30
65072;DHT22;51663;52.310;17.016;2023-01-28T00:56:00;18.90;27.80
65072;DHT22;51663;52.310;17.016;2023-01-28T00:59:02;19.60;27.10
65072;DHT22;51663;52.310;17.016;2023-01-28T01:02:04;17.90;28.10
65072;DHT22;51663;52.310;17.016;2023-01-28T01:05:13;17.70;28.20
65072;DHT22;51663;52.310;17.016;2023-01-28T01:08:16;16.10;30.30
65072;DHT22;51663;52.310;17.016;2023-01-28T01:11:18;16.20;30.90
65072;DHT22;51663;52.310;17.016;2023-01-28T01:14:20;15.50;31.20
65072;DHT22;51663;52.310;17.016;2023-01-28T01:17:23;14.80;32.50
65072;DHT22;51663;52.310;17.016;2023-01-28T01:20:28;14.60;33.20
65072;DHT22;51663;52.310;17.016;2023-01-28T01:23:31;16.70;31.50
65072;DHT22;51663;52.310;17.016;2023-01-28T01:26:33;16.80;30.00
65072;DHT22;51663;52.310;17.016;2023-01-28T01:29:35;15.10;31.90
65072;DHT22;51663;52.310;17.016;2023-01-28T01:32:37;16.00;31.50
65072;DHT22;51663;52.310;17.016;2023-01-28T01:35:40;18.50;28.80
65072;DHT22;51663;52.310;17.016;2023-01-28T01:38:42;19.30;26.80
65072;DHT22;51663;52.310;17.016;2023-01-28T01:41:44;17.60;29.00
65072;DHT22;51663;52.310;17.016;2023-01-28T01:44:51;18.30;28.60
65072;DHT22;51663;52.310;17.016;2023-01-28T01:48:03;18.30;28.00
65072;DHT22;51663;52.310;17.016;2023-01-28T01:51:11;16.90;29.70
65072;DHT22;51663;52.310;17.016;2023-01-28T01:54:14;14.60;32.50
65072;DHT22;51663;52.310;17.016;2023-01-28T01:57:26;14.20;34.50
65072;DHT22;51663;52.310;17.016;2023-01-28T02:00:29;14.70;33.20
65072;DHT22;51663;52.310;17.016;2023-01-28T02:03:46;14.70;33.90
65072;DHT22;51663;52.310;17.016;2023-01-28T02:06:51;14.00;34.10
65072;DHT22;51663;52.310;17.016;2023-01-28T02:09:53;13.60;36.60
65072;DHT22;51663;52.310;17.016;2023-01-28T02:12:56;15.20;33.40
65072;DHT22;51663;52.310;17.016;2023-01-28T02:16:00;16.60;30.80
65072;DHT22;51663;52.310;17.016;2023-01-28T02:19:05;14.80;33.00
65072;DHT22;51663;52.310;17.016;2023-01-28T02:28:46;15.40;32.40
65072;DHT22;51663;52.310;17.016;2023-01-28T02:32:07;16.00;31.00
65072;DHT22;51663;52.310;17.016;2023-01-28T02:35:28;16.90;30.40
65072;DHT22;51663;52.310;17.016;2023-01-28T02:38:36;17.90;28.60
65072;DHT22;51663;52.310;17.016;2023-01-28T02:42:24;17.30;29.00
65072;DHT22;51663;52.310;17.016;2023-01-28T02:45:32;15.50;31.60
65072;DHT22;51663;52.310;17.016;2023-01-28T02:48:55;14.30;34.00
65072;DHT22;51663;52.310;17.016;2023-01-28T02:59:48;15.20;33.10
65072;DHT22;51663;52.310;17.016;2023-01-28T03:03:03;16.80;30.50
65072;DHT22;51663;52.310;17.016;2023-01-28T03:06:13;17.70;28.90
65072;DHT22;51663;52.310;17.016;2023-01-28T03:09:17;17.20;29.40
65072;DHT22;51663;52.310;17.016;2023-01-28T03:12:26;17.60;28.60
65072;DHT22;51663;52.310;17.016;2023-01-28T03:15:48;16.30;30.70
65072;DHT22;51663;52.310;17.016;2023-01-28T03:19:10;16.30;30.20
65072;DHT22;51663;52.310;17.016;2023-01-28T03:22:35;16.00;30.80
65072;DHT22;51663;52.310;17.016;2023-01-28T03:25:59;16.10;30.50
65072;DHT22;51663;52.310;17.016;2023-01-28T03:29:23;15.00;32.20
65072;DHT22;51663;52.310;17.016;2023-01-28T03:32:45;14.40;34.60
65072;DHT22;51663;52.310;17.016;2023-01-28T03:36:07;15.50;32.20
65072;DHT22;51663;52.310;17.016;2023-01-28T03:39:29;16.80;30.80
65072;DHT22;51663;52.310;17.016;2023-01-28T03:42:32;15.20;31.60
65072;DHT22;51663;52.310;17.016;2023-01-28T03:45:34;15.10;32.50
65072;DHT22;51663;52.310;17.016;2023-01-28T03:48:36;14.90;32.70
65072;DHT22;51663;52.310;17.016;2023-01-28T03:51:38;14.60;33.50
65072;DHT22;51663;52.310;17.016;2023-01-28T03:54:41;13.10;35.10
65072;DHT22;51663;52.310;17.016;2023-01-28T03:57:44;14.00;34.50
65072;DHT22;51663;52.310;17.016;2023-01-28T04:00:46;12.90;36.20
65072;DHT22;51663;52.310;17.016;2023-01-28T04:03:49;13.20;36.10
65072;DHT22;51663;52.310;17.016;2023-01-28T04:06:51;14.70;34.70
65072;DHT22;51663;52.310;17.016;2023-01-28T04:09:54;14.90;32.70
65072;DHT22;51663;52.310;17.016;2023-01-28T04:12:56;14.50;33.20
65072;DHT22;51663;52.310;17.016;2023-01-28T04:15:58;15.00;33.00
65072;DHT22;51663;52.310;17.016;2023-01-28T04:19:04;15.10;32.90
65072;DHT22;51663;52.310;17.016;2023-01-28T04:22:09;14.10;33.90
65072;DHT22;51663;52.310;17.016;2023-01-28T04:25:11;15.00;32.50
65072;DHT22;51663;52.310;17.016;2023-01-28T04:28:14;15.20;32.40
65072;DHT22;51663;52.310;17.016;2023-01-28T04:31:16;15.90;31.30
65072;DHT22;51663;52.310;17.016;2023-01-28T04:34:19;16.50;30.20
65072;DHT22;51663;52.310;17.016;2023-01-28T04:37:21;16.60;30.00
65072;DHT22;51663;52.310;17.016;2023-01-28T04:40:23;17.40;29.00
65072;DHT22;51663;52.310;17.016;2023-01-28T04:43:25;16.80;29.90
65072;DHT22;51663;52.310;17.016;2023-01-28T04:46:27;16.10;29.60
65072;DHT22;51663;52.310;17.016;2023-01-28T04:49:29;15.10;31.50
65072;DHT22;51663;52.310;17.016;2023-01-28T04:52:32;14.10;33.30
65072;DHT22;51663;52.310;17.016;2023-01-28T04:55:34;14.60;32.60
65072;DHT22;51663;52.310;17.016;2023-01-28T04:58:36;14.40;32.90
65072;DHT22;51663;52.310;17.016;2023-01-28T05:01:38;13.40;34.40
65072;DHT22;51663;52.310;17.016;2023-01-28T05:04:41;13.20;34.70
65072;DHT22;51663;52.310;17.016;2023-01-28T05:07:43;13.10;35.80
65072;DHT22;51663;52.310;17.016;2023-01-28T05:10:45;14.00;33.90
65072;DHT22;51663;52.310;17.016;2023-01-28T05:13:48;16.30;31.10
65072;DHT22;51663;52.310;17.016;2023-01-28T05:16:50;16.30;29.80
65072;DHT22;51663;52.310;17.016;2023-01-28T05:19:52;17.20;29.40
65072;DHT22;51663;52.310;17.016;2023-01-28T05:22:54;17.90;28.10
65072;DHT22;51663;52.310;17.016;2023-01-28T05:25:56;17.70;28.10
65072;DHT22;51663;52.310;17.016;2023-01-28T05:28:58;17.20;28.10
65072;DHT22;51663;52.310;17.016;2023-01-28T05:32:00;16.70;29.10
65072;DHT22;51663;52.310;17.016;2023-01-28T05:35:03;16.30;29.10
65072;DHT22;51663;52.310;17.016;2023-01-28T05:38:05;15.20;30.60
65072;DHT22;51663;52.310;17.016;2023-01-28T05:41:07;17.60;28.60
65072;DHT22;51663;52.310;17.016;2023-01-28T05:44:09;18.70;27.00
65072;DHT22;51663;52.310;17.016;2023-01-28T05:47:12;18.80;27.20
65072;DHT22;51663;52.310;17.016;2023-01-28T05:50:14;21.00;25.00
65072;DHT22;51663;52.310;17.016;2023-01-28T05:53:17;21.70;23.30
65072;DHT22;51663;52.310;17.016;2023-01-28T05:56:19;20.50;24.30
65072;DHT22;51663;52.310;17.016;2023-01-28T05:59:24;21.90;23.80
65072;DHT22;51663;52.310;17.016;2023-01-28T06:02:26;23.50;22.10
65072;DHT22;51663;52.310;17.016;2023-01-28T06:05:28;21.50;22.80
65072;DHT22;51663;52.310;17.016;2023-01-28T06:08:30;20.50;24.10
65072;DHT22;51663;52.310;17.016;2023-01-28T06:11:33;19.40;24.80
65072;DHT22;51663;52.310;17.016;2023-01-28T06:14:34;19.10;25.30
65072;DHT22;51663;52.310;17.016;2023-01-28T06:17:37;17.90;26.10
65072;DHT22;51663;52.310;17.016;2023-01-28T06:20:39;17.30;27.20
65072;DHT22;51663;52.310;17.016;2023-01-28T06:23:41;19.10;26.10
65072;DHT22;51663;52.310;17.016;2023-01-28T06:26:43;20.90;24.20
65072;DHT22;51663;52.310;17.016;2023-01-28T06:29:46;22.30;22.70
65072;DHT22;51663;52.310;17.016;2023-01-28T06:32:53;23.10;21.70
65072;DHT22;51663;52.310;17.016;2023-01-28T06:35:56;23.40;21.00
65072;DHT22;51663;52.310;17.016;2023-01-28T06:38:57;22.80;22.20
65072;DHT22;51663;52.310;17.016;2023-01-28T06:42:00;21.10;23.20
65072;DHT22;51663;52.310;17.016;2023-01-28T06:45:02;19.20;24.10
65072;DHT22;51663;52.310;17.016;2023-01-28T06:48:05;17.40;26.20
65072;DHT22;51663;52.310;17.016;2023-01-28T06:51:09;18.30;26.10
65072;DHT22;51663;52.310;17.016;2023-01-28T06:54:11;19.10;25.30
65072;DHT22;51663;52.310;17.016;2023-01-28T06:57:13;20.70;24.00
65072;DHT22;51663;52.310;17.016;2023-01-28T07:00:16;23.00;22.10
65072;DHT22;51663;52.310;17.016;2023-01-28T07:03:19;23.90;21.00
65072;DHT22;51663;52.310;17.016;2023-01-28T07:06:21;24.70;20.10
65072;DHT22;51663;52.310;17.016;2023-01-28T07:09:24;24.80;20.00
65072;DHT22;51663;52.310;17.016;2023-01-28T07:12:26;24.70;19.70
65072;DHT22;51663;52.310;17.016;2023-01-28T07:15:28;24.30;19.90
65072;DHT22;51663;52.310;17.016;2023-01-28T07:18:30;21.50;21.80
65072;DHT22;51663;52.310;17.016;2023-01-28T07:21:32;20.00;23.90
65072;DHT22;51663;52.310;17.016;2023-01-28T07:24:35;19.20;24.60
65072;DHT22;51663;52.310;17.016;2023-01-28T07:27:37;20.20;24.20
65072;DHT22;51663;52.310;17.016;2023-01-28T07:30:39;19.90;23.60
65072;DHT22;51663;52.310;17.016;2023-01-28T07:33:41;18.80;25.20
65072;DHT22;51663;52.310;17.016;2023-01-28T07:36:43;17.30;26.90
65072;DHT22;51663;52.310;17.016;2023-01-28T07:39:45;16.80;27.60
65072;DHT22;51663;52.310;17.016;2023-01-28T07:42:48;17.70;26.70
65072;DHT22;51663;52.310;17.016;2023-01-28T07:45:50;17.00;27.60
65072;DHT22;51663;52.310;17.016;2023-01-28T07:48:52;16.80;27.60
65072;DHT22;51663;52.310;17.016;2023-01-28T07:51:54;16.40;28.10
65072;DHT22;51663;52.310;17.016;2023-01-28T07:54:56;16.40;27.80
65072;DHT22;51663;52.310;17.016;2023-01-28T07:57:59;17.30;27.40
65072;DHT22;51663;52.310;17.016;2023-01-28T08:01:02;18.80;25.70
65072;DHT22;51663;52.310;17.016;2023-01-28T08:04:04;17.50;26.60
65072;DHT22;51663;52.310;17.016;2023-01-28T08:07:07;17.90;26.30
65072;DHT22;51663;52.310;17.016;2023-01-28T08:10:10;16.80;27.20
65072;DHT22;51663;52.310;17.016;2023-01-28T08:13:15;17.90;26.40
65072;DHT22;51663;52.310;17.016;2023-01-28T08:16:18;19.40;25.30
65072;DHT22;51663;52.310;17.016;2023-01-28T08:19:20;19.80;24.40
65072;DHT22;51663;52.310;17.016;2023-01-28T08:22:26;19.60;24.60
65072;DHT22;51663;52.310;17.016;2023-01-28T08:25:28;20.80;23.40
65072;DHT22;51663;52.310;17.016;2023-01-28T08:28:30;21.30;23.30
65072;DHT22;51663;52.310;17.016;2023-01-28T08:31:33;21.40;22.80
65072;DHT22;51663;52.310;17.016;2023-01-28T08:34:35;20.00;23.30
65072;DHT22;51663;52.310;17.016;2023-01-28T08:37:37;19.70;23.80
65072;DHT22;51663;52.310;17.016;2023-01-28T08:40:39;17.60;25.80
65072;DHT22;51663;52.310;17.016;2023-01-28T08:43:42;17.80;26.00
65072;DHT22;51663;52.310;17.016;2023-01-28T08:46:44;18.50;25.70
65072;DHT22;51663;52.310;17.016;2023-01-28T08:49:46;18.20;25.40
65072;DHT22;51663;52.310;17.016;2023-01-28T08:52:57;17.90;25.80
65072;DHT22;51663;52.310;17.016;2023-01-28T08:55:59;19.00;24.30
65072;DHT22;51663;52.310;17.016;2023-01-28T08:59:02;20.90;23.50
65072;DHT22;51663;52.310;17.016;2023-01-28T09:02:04;22.10;21.90
65072;DHT22;51663;52.310;17.016;2023-01-28T09:05:07;20.30;22.70
65072;DHT22;51663;52.310;17.016;2023-01-28T09:08:12;22.30;21.80
65072;DHT22;51663;52.310;17.016;2023-01-28T09:11:15;23.70;20.70
65072;DHT22;51663;52.310;17.016;2023-01-28T09:14:17;25.10;19.70
65072;DHT22;51663;52.310;17.016;2023-01-28T09:17:20;23.80;19.70
65072;DHT22;51663;52.310;17.016;2023-01-28T09:20:22;24.70;19.60
65072;DHT22;51663;52.310;17.016;2023-01-28T09:23:24;22.90;20.00
65072;DHT22;51663;52.310;17.016;2023-01-28T09:26:27;21.60;20.90
65072;DHT22;51663;52.310;17.016;2023-01-28T09:29:29;22.20;21.10
65072;DHT22;51663;52.310;17.016;2023-01-28T09:32:31;22.30;21.20
65072;DHT22;51663;52.310;17.016;2023-01-28T09:35:33;24.30;20.00
65072;DHT22;51663;52.310;17.016;2023-01-28T09:38:36;24.80;19.20
65072;DHT22;51663;52.310;17.016;2023-01-28T09:45:28;26.10;18.70
65072;DHT22;51663;52.310;17.016;2023-01-28T09:48:39;25.80;18.30
65072;DHT22;51663;52.310;17.016;2023-01-28T09:51:51;25.80;18.30
65072;DHT22;51663;52.310;17.016;2023-01-28T09:54:59;25.70;18.10
65072;DHT22;51663;52.310;17.016;2023-01-28T09:58:09;25.60;18.10
65072;DHT22;51663;52.310;17.016;2023-01-28T10:14:54;25.70;18.30
65072;DHT22;51663;52.310;17.016;2023-01-28T10:18:10;26.90;18.00
65072;DHT22;51663;52.310;17.016;2023-01-28T10:21:36;27.30;17.80
65072;DHT22;51663;52.310;17.016;2023-01-28T10:24:45;26.70;17.40
65072;DHT22;51663;52.310;17.016;2023-01-28T10:27:50;27.30;17.30
65072;DHT22;51663;52.310;17.016;2023-01-28T10:30:53;27.00;17.10
65072;DHT22;51663;52.310;17.016;2023-01-28T10:33:55;27.10;17.80
65072;DHT22;51663;52.310;17.016;2023-01-28T10:36:57;27.10;17.40
65072;DHT22;51663;52.310;17.016;2023-01-28T10:40:00;27.50;17.60
65072;DHT22;51663;52.310;17.016;2023-01-28T10:43:05;27.40;17.10
65072;DHT22;51663;52.310;17.016;2023-01-28T10:46:15;27.70;17.20
65072;DHT22;51663;52.310;17.016;2023-01-28T10:49:23;26.60;17.30
65072;DHT22;51663;52.310;17.016;2023-01-28T10:52:27;26.10;17.80
65072;DHT22;51663;52.310;17.016;2023-01-28T10:58:49;26.40;17.90
65072;DHT22;51663;52.310;17.016;2023-01-28T11:02:00;26.80;17.60
65072;DHT22;51663;52.310;17.016;2023-01-28T11:08:18;27.20;17.10
65072;DHT22;51663;52.310;17.016;2023-01-28T11:11:27;27.10;17.20
65072;DHT22;51663;52.310;17.016;2023-01-28T11:14:34;27.40;17.50
65072;DHT22;51663;52.310;17.016;2023-01-28T11:17:37;27.30;17.20
65072;DHT22;51663;52.310;17.016;2023-01-28T11:20:41;27.00;17.60
65072;DHT22;51663;52.310;17.016;2023-01-28T11:24:13;25.50;18.20
65072;DHT22;51663;52.310;17.016;2023-01-28T11:27:19;26.30;17.90
65072;DHT22;51663;52.310;17.016;2023-01-28T11:30:36;26.90;17.70
65072;DHT22;51663;52.310;17.016;2023-01-28T11:36:53;26.80;17.70
65072;DHT22;51663;52.310;17.016;2023-01-28T11:40:23;26.60;17.70
65072;DHT22;51663;52.310;17.016;2023-01-28T11:43:29;26.90;17.50
65072;DHT22;51663;52.310;17.016;2023-01-28T11:46:50;26.50;17.40
65072;DHT22;51663;52.310;17.016;2023-01-28T12:10:08;23.50;19.60
65072;DHT22;51663;52.310;17.016;2023-01-28T12:19:46;24.70;18.80
65072;DHT22;51663;52.310;17.016;2023-01-28T12:30:06;22.30;20.60
65072;DHT22;51663;52.310;17.016;2023-01-28T12:36:47;22.00;22.10
65072;DHT22;51663;52.310;17.016;2023-01-28T12:40:17;22.60;20.80
65072;DHT22;51663;52.310;17.016;2023-01-28T12:46:46;23.00;21.40
65072;DHT22;51663;52.310;17.016;2023-01-28T12:49:55;22.90;20.90
65072;DHT22;51663;52.310;17.016;2023-01-28T12:56:18;23.80;19.90
65072;DHT22;51663;52.310;17.016;2023-01-28T12:59:28;22.60;20.30
65072;DHT22;51663;52.310;17.016;2023-01-28T13:02:36;23.20;20.00
65072;DHT22;51663;52.310;17.016;2023-01-28T13:05:50;22.60;20.60
65072;DHT22;51663;52.310;17.016;2023-01-28T13:09:19;23.90;19.60
65072;DHT22;51663;52.310;17.016;2023-01-28T13:12:21;24.40;19.40
65072;DHT22;51663;52.310;17.016;2023-01-28T13:15:24;25.40;18.20
65072;DHT22;51663;52.310;17.016;2023-01-28T13:21:35;26.20;17.70
65072;DHT22;51663;52.310;17.016;2023-01-28T13:24:49;26.30;17.80
65072;DHT22;51663;52.310;17.016;2023-01-28T13:27:56;26.70;17.30
65072;DHT22;51663;52.310;17.016;2023-01-28T13:31:05;26.60;17.40
65072;DHT22;51663;52.310;17.016;2023-01-28T13:37:42;27.20;17.20
65072;DHT22;51663;52.310;17.016;2023-01-28T13:40:59;27.20;16.80
65072;DHT22;51663;52.310;17.016;2023-01-28T13:44:02;27.50;16.90
65072;DHT22;51663;52.310;17.016;2023-01-28T13:50:15;27.50;17.00
65072;DHT22;51663;52.310;17.016;2023-01-28T14:13:19;26.40;17.20
65072;DHT22;51663;52.310;17.016;2023-01-28T14:19:57;26.00;17.80
65072;DHT22;51663;52.310;17.016;2023-01-28T14:23:04;24.50;18.40
65072;DHT22;51663;52.310;17.016;2023-01-28T14:33:21;18.80;23.70
65072;DHT22;51663;52.310;17.016;2023-01-28T14:36:24;18.40;24.60
65072;DHT22;51663;52.310;17.016;2023-01-28T14:39:28;17.30;25.80
65072;DHT22;51663;52.310;17.016;2023-01-28T14:43:01;17.10;25.60
65072;DHT22;51663;52.310;17.016;2023-01-28T15:03:19;24.10;19.80
65072;DHT22;51663;52.310;17.016;2023-01-28T15:06:33;25.00;18.50
65072;DHT22;51663;52.310;17.016;2023-01-28T15:09:36;25.70;17.90
65072;DHT22;51663;52.310;17.016;2023-01-28T15:12:40;26.20;17.70
65072;DHT22;51663;52.310;17.016;2023-01-28T15:15:46;26.50;17.70
65072;DHT22;51663;52.310;17.016;2023-01-28T15:18:52;26.50;17.10
65072;DHT22;51663;52.310;17.016;2023-01-28T15:22:03;26.90;16.90
65072;DHT22;51663;52.310;17.016;2023-01-28T15:25:15;26.80;16.80
65072;DHT22;51663;52.310;17.016;2023-01-28T15:28:32;27.00;17.60
65072;DHT22;51663;52.310;17.016;2023-01-28T15:31:35;27.20;17.00
65072;DHT22;51663;52.310;17.016;2023-01-28T15:34:44;27.20;17.10
65072;DHT22;51663;52.310;17.016;2023-01-28T15:37:47;27.10;17.40
65072;DHT22;51663;52.310;17.016;2023-01-28T15:40:57;27.30;17.10
65072;DHT22;51663;52.310;17.016;2023-01-28T15:44:01;27.20;17.00
65072;DHT22;51663;52.310;17.016;2023-01-28T15:47:49;27.20;17.50
65072;DHT22;51663;52.310;17.016;2023-01-28T15:51:19;27.20;17.40
65072;DHT22;51663;52.310;17.016;2023-01-28T15:54:23;27.30;17.30
65072;DHT22;51663;52.310;17.016;2023-01-28T15:57:30;27.40;17.60
65072;DHT22;51663;52.310;17.016;2023-01-28T16:00:33;27.30;17.30
65072;DHT22;51663;52.310;17.016;2023-01-28T16:03:36;27.20;17.40
65072;DHT22;51663;52.310;17.016;2023-01-28T16:06:42;27.30;17.60
65072;DHT22;51663;52.310;17.016;2023-01-28T16:09:50;27.40;17.40
65072;DHT22;51663;52.310;17.016;2023-01-28T16:13:04;27.30;17.40
65072;DHT22;51663;52.310;17.016;2023-01-28T16:16:10;27.40;17.80
65072;DHT22;51663;52.310;17.016;2023-01-28T16:22:39;27.50;17.90
65072;DHT22;51663;52.310;17.016;2023-01-28T16:25:44;27.50;17.80
65072;DHT22;51663;52.310;17.016;2023-01-28T16:28:46;27.40;17.60
65072;DHT22;51663;52.310;17.016;2023-01-28T16:31:49;27.20;17.70
65072;DHT22;51663;52.310;17.016;2023-01-28T16:34:51;27.30;17.90
65072;DHT22;51663;52.310;17.016;2023-01-28T16:37:53;27.20;17.70
65072;DHT22;51663;52.310;17.016;2023-01-28T16:40:56;27.10;18.00
65072;DHT22;51663;52.310;17.016;2023-01-28T16:44:00;27.20;17.90
65072;DHT22;51663;52.310;17.016;2023-01-28T16:47:07;27.30;18.10
65072;DHT22;51663;52.310;17.016;2023-01-28T16:50:11;27.10;18.10
65072;DHT22;51663;52.310;17.016;2023-01-28T16:53:24;27.20;18.00
65072;DHT22;51663;52.310;17.016;2023-01-28T16:56:30;27.10;17.60
65072;DHT22;51663;52.310;17.016;2023-01-28T16:59:48;27.20;18.00
65072;DHT22;51663;52.310;17.016;2023-01-28T17:02:52;27.10;17.80
65072;DHT22;51663;52.310;17.016;2023-01-28T17:05:54;27.10;17.80
65072;DHT22;51663;52.310;17.016;2023-01-28T17:08:56;27.20;17.80
65072;DHT22;51663;52.310;17.016;2023-01-28T17:11:59;26.80;17.80
65072;DHT22;51663;52.310;17.016;2023-01-28T17:15:03;26.80;18.30
65072;DHT22;51663;52.310;17.016;2023-01-28T17:18:05;26.90;18.20
65072;DHT22;51663;52.310;17.016;2023-01-28T17:21:07;26.60;18.50
65072;DHT22;51663;52.310;17.016;2023-01-28T17:24:09;26.90;18.40
65072;DHT22;51663;52.310;17.016;2023-01-28T17:27:12;27.20;18.30
65072;DHT22;51663;52.310;17.016;2023-01-28T17:30:16;27.20;18.40
65072;DHT22;51663;52.310;17.016;2023-01-28T17:33:18;27.30;18.50
65072;DHT22;51663;52.310;17.016;2023-01-28T17:36:21;27.20;18.30
65072;DHT22;51663;52.310;17.016;2023-01-28T17:39:24;27.30;18.30
65072;DHT22;51663;52.310;17.016;2023-01-28T17:42:26;27.30;18.10
65072;DHT22;51663;52.310;17.016;2023-01-28T17:45:32;27.10;18.30
65072;DHT22;51663;52.310;17.016;2023-01-28T17:48:34;27.20;18.10
65072;DHT22;51663;52.310;17.016;2023-01-28T17:51:37;27.30;18.20
65072;DHT22;51663;52.310;17.016;2023-01-28T17:54:39;27.40;18.50
65072;DHT22;51663;52.310;17.016;2023-01-28T17:57:43;27.40;18.30
65072;DHT22;51663;52.310;17.016;2023-01-28T18:00:45;27.30;17.80
65072;DHT22;51663;52.310;17.016;2023-01-28T18:03:48;27.30;17.90
65072;DHT22;51663;52.310;17.016;2023-01-28T18:06:50;27.30;18.30
65072;DHT22;51663;52.310;17.016;2023-01-28T18:09:53;27.30;18.30
65072;DHT22;51663;52.310;17.016;2023-01-28T18:12:56;27.20;18.20
65072;DHT22;51663;52.310;17.016;2023-01-28T18:15:58;27.10;18.20
65072;DHT22;51663;52.310;17.016;2023-01-28T18:19:00;27.00;18.30
65072;DHT22;51663;52.310;17.016;2023-01-28T18:22:03;27.00;18.40
65072;DHT22;51663;52.310;17.016;2023-01-28T18:25:05;27.00;18.40
65072;DHT22;51663;52.310;17.016;2023-01-28T18:28:08;27.10;18.40
65072;DHT22;51663;52.310;17.016;2023-01-28T18:31:10;27.20;18.30
65072;DHT22;51663;52.310;17.016;2023-01-28T18:34:15;27.30;18.40
65072;DHT22;51663;52.310;17.016;2023-01-28T18:37:17;27.10;18.30
65072;DHT22;51663;52.310;17.016;2023-01-28T18:40:20;27.20;18.40
65072;DHT22;51663;52.310;17.016;2023-01-28T18:43:22;27.20;18.30
65072;DHT22;51663;52.310;17.016;2023-01-28T18:46:25;27.20;18.20
65072;DHT22;51663;52.310;17.016;2023-01-28T18:49:27;26.80;18.40
65072;DHT22;51663;52.310;17.016;2023-01-28T18:52:29;26.60;18.70
65072;DHT22;51663;52.310;17.016;2023-01-28T18:55:31;26.80;18.60
65072;DHT22;51663;52.310;17.016;2023-01-28T18:58:34;27.10;18.40
65072;DHT22;51663;52.310;17.016;2023-01-28T19:01:36;27.10;18.40
65072;DHT22;51663;52.310;17.016;2023-01-28T19:04:38;27.10;18.40
65072;DHT22;51663;52.310;17.016;2023-01-28T19:07:42;27.30;18.30
65072;DHT22;51663;52.310;17.016;2023-01-28T19:10:44;27.20;18.60
65072;DHT22;51663;52.310;17.016;2023-01-28T19:13:55;27.20;18.40
65072;DHT22;51663;52.310;17.016;2023-01-28T19:16:58;27.20;18.30
65072;DHT22;51663;52.310;17.016;2023-01-28T19:20:01;26.70;18.50
65072;DHT22;51663;52.310;17.016;2023-01-28T19:23:03;27.10;18.50
65072;DHT22;51663;52.310;17.016;2023-01-28T19:26:08;26.70;18.80
65072;DHT22;51663;52.310;17.016;2023-01-28T19:29:24;26.20;18.70
65072;DHT22;51663;52.310;17.016;2023-01-28T19:32:29;26.40;18.50
65072;DHT22;51663;52.310;17.016;2023-01-28T19:35:35;26.70;18.60
65072;DHT22;51663;52.310;17.016;2023-01-28T19:38:38;26.40;18.80
65072;DHT22;51663;52.310;17.016;2023-01-28T19:41:44;26.50;18.60
65072;DHT22;51663;52.310;17.016;2023-01-28T19:44:47;25.90;18.90
65072;DHT22;51663;52.310;17.016;2023-01-28T19:47:50;26.40;18.70
65072;DHT22;51663;52.310;17.016;2023-01-28T19:50:53;26.40;18.80
65072;DHT22;51663;52.310;17.016;2023-01-28T19:53:56;25.60;19.10
65072;DHT22;51663;52.310;17.016;2023-01-28T19:56:58;25.50;19.10
65072;DHT22;51663;52.310;17.016;2023-01-28T20:00:01;26.20;19.40
65072;DHT22;51663;52.310;17.016;2023-01-28T20:03:09;25.20;19.30
65072;DHT22;51663;52.310;17.016;2023-01-28T20:06:15;25.90;19.30
65072;DHT22;51663;52.310;17.016;2023-01-28T20:09:17;26.40;19.00
65072;DHT22;51663;52.310;17.016;2023-01-28T20:12:21;26.80;18.90
65072;DHT22;51663;52.310;17.016;2023-01-28T20:15:28;26.90;18.80
65072;DHT22;51663;52.310;17.016;2023-01-28T20:18:31;26.80;18.90
65072;DHT22;51663;52.310;17.016;2023-01-28T20:21:34;26.50;18.80
65072;DHT22;51663;52.310;17.016;2023-01-28T20:24:36;26.60;19.10
65072;DHT22;51663;52.310;17.016;2023-01-28T20:27:39;26.80;18.90
65072;DHT22;51663;52.310;17.016;2023-01-28T20:30:41;26.80;18.90
65072;DHT22;51663;52.310;17.016;2023-01-28T20:33:44;26.70;19.30
65072;DHT22;51663;52.310;17.016;2023-01-28T20:36:46;27.00;19.00
65072;DHT22;51663;52.310;17.016;2023-01-28T20:39:49;27.00;19.00
65072;DHT22;51663;52.310;17.016;2023-01-28T20:42:51;26.70;19.00
65072;DHT22;51663;52.310;17.016;2023-01-28T20:46:04;27.00;19.00
65072;DHT22;51663;52.310;17.016;2023-01-28T20:49:08;27.00;18.90
65072;DHT22;51663;52.310;17.016;2023-01-28T20:52:12;27.20;18.90
65072;DHT22;51663;52.310;17.016;2023-01-28T20:55:15;27.20;19.30
65072;DHT22;51663;52.310;17.016;2023-01-28T20:58:21;26.70;18.80
65072;DHT22;51663;52.310;17.016;2023-01-28T21:01:29;26.00;19.00
65072;DHT22;51663;52.310;17.016;2023-01-28T21:04:36;26.10;19.60
65072;DHT22;51663;52.310;17.016;2023-01-28T21:07:40;26.10;19.70
65072;DHT22;51663;52.310;17.016;2023-01-28T21:10:42;26.60;19.40
65072;DHT22;51663;52.310;17.016;2023-01-28T21:13:45;26.90;19.60
65072;DHT22;51663;52.310;17.016;2023-01-28T21:16:47;27.10;19.40
65072;DHT22;51663;52.310;17.016;2023-01-28T21:19:53;27.10;19.40
65072;DHT22;51663;52.310;17.016;2023-01-28T21:22:56;27.20;19.30
65072;DHT22;51663;52.310;17.016;2023-01-28T21:26:03;26.80;19.30
65072;DHT22;51663;52.310;17.016;2023-01-28T21:29:06;27.00;19.30
65072;DHT22;51663;52.310;17.016;2023-01-28T21:32:08;27.10;19.40
65072;DHT22;51663;52.310;17.016;2023-01-28T21:35:14;27.20;19.50
65072;DHT22;51663;52.310;17.016;2023-01-28T21:38:17;27.10;19.40